MMZH/ZIH METAR and TAF weather

Enter ICAO airport designator
Station Type Date Time Source
MMZH METAR 2019/02/21 02:40 UTC NOAA

MMZH 210240Z 00000KT 7SM SKC 25/20 A2984 RMK SLP096 52020 967


Station Type Date Time Source
MMZH Decoded METAR 2019/02/21 02:40 UTC NOAA

Ixtapa-Zihuatanejo, Mexico (MMZH) 17-36N 101-28W
Feb 20, 2019 - 09:40 PM EST / 2019.02.21 0240 UTC
Wind: Calm:0
Visibility: 7 mile(s):0
Sky conditions: clear
Temperature: 77 F (25 C)
Dew Point: 68 F (20 C)
Relative Humidity: 73%
Pressure (altimeter): 29.84 in. Hg (1010 hPa)
Pressure tendency: 0.06 inches (2.0 hPa) higher than three hours ago
ob: MMZH 210240Z 00000KT 7SM SKC 25/20 A2984 RMK SLP096 52020 967
cycle: 2

Station Type Date Time Source
MMZH TAF 2019/02/21 06:56 UTC NOAA

TAF MMZH 210449Z 2106/2206 00000KT P6SM SKC
FM211800 24012KT P6SM SCT020 SCT250
FM220500 00000KT P6SM SKC


Example: see airport list